Aquone, North Carolina
Current Conditions -  °F | °C
As of 3:55 AM on Saturday 22 Nov 2014 (Local Time) from KRHP Reporting Station
Clear Clear  
Wind Chill: 23°   Ceiling: Unl
Heat Index: 23°   Visibility: 10mi
Dew Point: 22°   Wind: 0mph
Humidity: 96%   Direction: NA
Pressure: 30.45"   Gusts: NA
Location:  35.2235°N, 83.6438°W
Report Text: KRHP 220855Z AUTO 00000KT 10SM CLR M05/M05 A3045 RMK AO2 T10501055
Loading
Personal Weather Stations






























Interactive Weather Map New forecast layout! Learn more

10-Day Weather Forecast

Advertisements
Track Severe Weather on mobile